Pagrindinis puslapis
METAR-TAF:

METAR-TAF

Oro uostai :

Stavropolis, Rusija

platuma: 45-20N, ilguma: 042-00E, Aukštis: 453 m

Dabartinis oras

Ataskaita buvo paskelbta 22 minutes, ne 00:30 UTC
Vėjas 6 kt iš Šiaurės Vakarų
Temperatūra 14°C
Drėgmė 72%
Slėgis 1017 hPa
Matomumas 10 km arba daugiau
Išsisklaidę debesys ne aukštis 2500 ft

METAR: URMT 190030Z 31003MPS 9999 SCT025 14/09 Q1017 R25/010070 NOSIG RMK QFE724

Laikas: 03:52 (00:52 UTC)

Prognozė

Ataskaita buvo paskelbta 1 valandą ir 52 minutes, ne 23:00 UTC
Prognozė galioja nuo 19 metu 00 UTC su 19 metu 09 UTC
Vėjas 12 kt iš Vakarų/Šiaurės Vakarų su gūsio iki 25 kt
Matomumas 10 km arba daugiau
Išsisklaidę debesys ne aukštis 2000 ft, Liūtiniai kamuoliniai debesys.
Laikinai
nuo 19 metu 00 UTC su 19 metu 03 UTC
Vėjas 21 kt iš Šiaurės Vakarų su gūsio iki 35 kt
Matomumas: 3100 m
Išsisklaidę debesys ne aukštis 1100 ft
Su prošvaistėmis ne aukštis 2000 ft, Liūtiniai kamuoliniai debesys.
lietus, rūkana

TAF: URMT 182300Z 1900/1909 30006G13MPS 9999 SCT020CB TEMPO 1900/1903 32011G18MPS 3100 -SHRA BR SCT011 BKN020CB

Orai ataskaitas ir orų prognozės (METAR, TAF).

turimą stotys yra geltonos ir raudonos taškus žemėlapyje.

Perkelti pele per norėdami pamatyti stoties vardą.

Tada spustelėkite, norėdami matyti oro stebėjimo ir prognozės.

Norėdami pakeisti žemėlapį: spustelėkite ant žalios mygtukų su juodo kryžiaus žemyn,; žalią mygtuką su brūkšneliu, jei norite nutolinti; arba žalių rodyklių gretimoms žemėlapius.


METAR-TAF: